HTIR/IRI METAR and TAF weather

Enter ICAO airport designator
Station Type Date Time Source
HTIR METAR 2018/12/13 16:00 UTC NOAA

HTIR 131600Z 18009KT 9999 -TSRA BKN016 FEW017CB BKN080 19/16 Q1021 HTKA 131600Z 00000KT 9999 SCT024 FEW025CB BKN090 24/21 Q1018


Station Type Date Time Source
HTIR Decoded METAR 2018/12/13 16:00 UTC NOAA

Iringa, Tanzania (HTIR) 07-40S 035-45E 1428M
Dec 13, 2018 - 11:00 AM EST / 2018.12.13 1600 UTC
Wind: Calm:0
Visibility: greater than 7 mile(s):0
Sky conditions: mostly cloudy
Weather: light rain with thunder; Cumulonimbus clouds observed
Temperature: 66 F (19 C)
Dew Point: 60 F (16 C)
Relative Humidity: 82%
Pressure (altimeter): 30.15 in. Hg (1021 hPa)
ob: HTIR 131600Z 18009KT 9999 -TSRA BKN016 FEW017CB BKN080 19/16 Q1021 HTKA 131600Z 00000KT 9999 SCT024 FEW025CB BKN090 24/21 Q1018
cycle: 16

Station Type Date Time Source
HTIR TAF UTC NOAA

Error!


Example: see airport list